Suhaja, Russia
Current Conditions -  °F | °C
As of 9:30 AM on Wednesday 26 Nov 2014 (Local Time) from UIUU Reporting Station
Scattered Clouds Scattered Clouds  
Wind Chill: -13°   Ceiling: Unl
Heat Index:   Visibility: 6mi
Dew Point: -8°   Wind: 11mph
Humidity: 61%   Direction: 280°W
Pressure: 29.97"   Gusts: NA
Location:  52.57°N, 107.13°E
Report Text: UIUU 260130Z 28005MPS 9999 SCT033CB M16/M22 Q1015 NOSIG RMKQFE717/0956 26410560
Loading
Personal Weather Stations






























Interactive Weather Map New forecast layout! Learn more

10-Day Weather Forecast

Advertisements
Track Severe Weather on mobile